Baltic Betina — 9HDW8 — position and weather

sailwx.info

Track history (hours):
 
Tides and Currents Weather Stations Pressure Air Temp Water Temp Dewpoint Dewpoint Depression Visibility Wind Speed Wind Dir Waves Ship Positions

Baltic Betina

Last reported at 2014-Jul-24 13:32 UTC. Time now 2014-Jul-24 14:41 UTC.
Position N 59°19' E 005°19'.

Length 90 m; draft 5.3 m.

Type: Ship. MMSI: 215869000.

Date/timePositionNaut miles runAvg speedWind from/ knotsBaromVisibWave heightAir tempDewpointWater temp
2014-Jul-24 13:32N 59°19' E 005°19'4 3.7
2014-Jul-24 12:33N 59°22' E 005°18'5210.1
2014-Jul-24 07:23N 60°14' E 005°09'910.4
2014-Jul-24 06:32N 60°23' E 005°11'9 6.8
2014-Jul-24 05:13N 60°32' E 005°15'0 0.3
2014-Jul-24 04:33N 60°32' E 005°15'2 2.0
2014-Jul-24 03:33N 60°30' E 005°15'1110.0
2014-Jul-24 02:26N 60°19' E 005°12'49 2.1
2014-Jul-23 02:33N 59°30' E 005°13'1010.0
2014-Jul-23 01:33N 59°20' E 005°19'1010.1
2014-Jul-23 00:33N 59°11' E 005°22'9 9.2
2014-Jul-22 23:34N 59°04' E 005°34'8 8.1
2014-Jul-22 22:34N 58°60' E 005°48'9 8.8
2014-Jul-22 21:33N 58°51' E 005°45'0 0.0
2014-Jul-22 20:31N 58°51' E 005°45'0 0.0
2014-Jul-22 19:31N 58°51' E 005°45'2 1.8
2014-Jul-22 18:33N 58°53' E 005°45'9 9.2
2014-Jul-22 17:33N 59°01' E 005°38'9 9.1
2014-Jul-22 16:33N 58°53' E 005°32'1111.0
2014-Jul-22 15:33N 58°42' E 005°28'1212.3
2014-Jul-22 14:33N 58°31' E 005°40'1211.8
2014-Jul-22 13:33N 58°23' E 005°55'1212.4
2014-Jul-22 12:33N 58°15' E 006°13'1212.3
2014-Jul-22 11:33N 58°06' E 006°30'47 7.8
2014-Jul-22 05:28N 58°08' E 007°60'10 1.4
2014-Jul-21 22:25N 57°60' E 008°08'910.0
2014-Jul-21 21:33N 58°05' E 008°20'1110.9
2014-Jul-21 20:33N 58°13' E 008°35'310.8
2014-Jul-21 20:18N 58°15' E 008°39'810.9
2014-Jul-21 19:33N 58°20' E 008°51'4510.3
2014-Jul-21 15:08N 58°46' E 010°02'610.0
2014-Jul-21 14:33N 58°49' E 010°11'1010.5
2014-Jul-21 13:33N 58°55' E 010°28'1010.2
2014-Jul-21 12:33N 59°01' E 010°44'8 8.3
2014-Jul-21 11:33N 59°05' E 010°58'6 6.3
2014-Jul-21 10:33N 59°11' E 010°57'0 0.0
2014-Jul-21 09:33N 59°11' E 010°57'0 0.0
2014-Jul-21 08:33N 59°11' E 010°57'0 0.3
2014-Jul-21 07:33N 59°11' E 010°57'1111.1
2014-Jul-21 06:33N 59°00' E 010°59'1111.1
2014-Jul-21 05:33N 58°49' E 011°06'1311.3
2014-Jul-21 04:26N 58°38' E 010°58'1111.6
2014-Jul-21 03:27N 58°26' E 010°56'1111.7
2014-Jul-21 02:33N 58°16' E 010°54'1111.5
2014-Jul-21 01:33N 58°04' E 010°52'1212.2
2014-Jul-21 00:33N 57°52' E 010°49'1211.9
2014-Jul-20 23:33N 57°40' E 010°46'1111.2
2014-Jul-20 22:33N 57°29' E 010°45'1211.7
2014-Jul-20 21:33N 57°17' E 010°44'1111.2
2014-Jul-20 20:33N 57°06' E 010°44'2210.4
2014-Jul-20 18:24N 56°45' E 010°58'910.9
2014-Jul-20 17:33N 56°36' E 011°00'1111.3
2014-Jul-20 16:33N 56°25' E 010°60'69 6.7
2014-Jul-20 06:20N 55°31' E 009°44'4 5.7
2014-Jul-20 05:33N 55°26' E 009°43'1010.4
2014-Jul-20 04:33N 55°17' E 009°51'10 9.8
2014-Jul-20 03:33N 55°07' E 009°55'1212.0
2014-Jul-20 02:32N 54°58' E 010°09'1212.2
2014-Jul-20 01:33N 54°49' E 010°22'1211.7
2014-Jul-20 00:33N 54°43' E 010°40'1211.9
2014-Jul-19 23:33N 54°37' E 010°58'1212.2
2014-Jul-19 22:33N 54°34' E 011°18'1212.1
2014-Jul-19 21:34N 54°29' E 011°37'1211.9
2014-Jul-19 20:33N 54°26' E 011°57'1010.3
2014-Jul-19 19:33N 54°32' E 012°12'1111.4
2014-Jul-19 18:33N 54°40' E 012°25'1211.7
2014-Jul-19 17:33N 54°47' E 012°42'1211.7
2014-Jul-19 16:33N 54°46' E 013°03'1211.8
2014-Jul-19 15:33N 54°46' E 013°23'1010.5
2014-Jul-19 14:33N 54°41' E 013°39'1111.5
2014-Jul-19 13:33N 54°31' E 013°49'1111.2
2014-Jul-19 12:33N 54°21' E 013°58'1111.2
2014-Jul-19 11:33N 54°11' E 014°06'1111.1
2014-Jul-19 10:33N 54°01' E 014°16'8 7.7
2014-Jul-19 09:33N 53°54' E 014°16'0 0.1
2014-Jul-19 08:31N 53°54' E 014°16'0 0.0
2014-Jul-19 07:31N 53°54' E 014°16'0 0.0
2014-Jul-19 06:31N 53°54' E 014°16'0 0.0
2014-Jul-19 05:31N 53°54' E 014°16'3 3.3
2014-Jul-19 04:33N 53°57' E 014°16'6 5.9
2014-Jul-19 03:33N 54°02' E 014°19'1111.2
2014-Jul-19 02:33N 54°11' E 014°31'1111.2
2014-Jul-19 01:33N 54°20' E 014°44'1010.5
2014-Jul-19 00:33N 54°24' E 015°00'6 5.8
2014-Jul-18 23:33N 54°29' E 015°05'9 8.8
2014-Jul-18 22:33N 54°37' E 014°58'1010.2
2014-Jul-18 21:33N 54°46' E 015°05'1010.1
2014-Jul-18 20:33N 54°55' E 015°14'1010.2
2014-Jul-18 19:33N 55°03' E 015°24'1110.5
2014-Jul-18 18:33N 55°12' E 015°35'1010.4
2014-Jul-18 17:33N 55°20' E 015°45'1111.4
2014-Jul-18 16:33N 55°29' E 015°57'1111.1
2014-Jul-18 15:33N 55°39' E 016°07'10 9.9
2014-Jul-18 14:33N 55°47' E 016°17'1010.0
2014-Jul-18 13:33N 55°56' E 016°26'10 9.9
2014-Jul-18 12:33N 56°04' E 016°36'4010.0
2014-Jul-18 08:33N 56°41' E 017°01'1010.4
2014-Jul-18 07:33N 56°51' E 017°09'1010.5
2014-Jul-18 06:33N 57°00' E 017°18'1010.4
2014-Jul-18 05:33N 57°09' E 017°26'1110.6
2014-Jul-18 04:33N 57°19' E 017°35'1111.1
2014-Jul-18 03:33N 57°29' E 017°43'1111.4
2014-Jul-18 02:33N 57°38' E 017°55'  
Track history (hours):
 
Tides and Currents Weather Stations Pressure Air Temp Water Temp Dewpoint Dewpoint Depression Visibility Wind Speed Wind Dir Waves Ship Positions

Baltic Betina

Last reported at 2014-Jul-24 13:32 UTC. Time now 2014-Jul-24 14:41 UTC.
Position N 59°19' E 005°19'.

Length 90 m; draft 5.3 m.

Type: Ship. MMSI: 215869000.

Date/timePositionNaut miles runAvg speedWind from/ knotsBaromVisibWave heightAir tempDewpointWater temp
2014-Jul-24 13:32N 59°19' E 005°19'4 3.7
2014-Jul-24 12:33N 59°22' E 005°18'5210.1
2014-Jul-24 07:23N 60°14' E 005°09'910.4
2014-Jul-24 06:32N 60°23' E 005°11'9 6.8
2014-Jul-24 05:13N 60°32' E 005°15'0 0.3
2014-Jul-24 04:33N 60°32' E 005°15'2 2.0
2014-Jul-24 03:33N 60°30' E 005°15'1110.0
2014-Jul-24 02:26N 60°19' E 005°12'49 2.1
2014-Jul-23 02:33N 59°30' E 005°13'1010.0
2014-Jul-23 01:33N 59°20' E 005°19'1010.1
2014-Jul-23 00:33N 59°11' E 005°22'9 9.2
2014-Jul-22 23:34N 59°04' E 005°34'8 8.1
2014-Jul-22 22:34N 58°60' E 005°48'9 8.8
2014-Jul-22 21:33N 58°51' E 005°45'0 0.0
2014-Jul-22 20:31N 58°51' E 005°45'0 0.0
2014-Jul-22 19:31N 58°51' E 005°45'2 1.8
2014-Jul-22 18:33N 58°53' E 005°45'9 9.2
2014-Jul-22 17:33N 59°01' E 005°38'9 9.1
2014-Jul-22 16:33N 58°53' E 005°32'1111.0
2014-Jul-22 15:33N 58°42' E 005°28'1212.3
2014-Jul-22 14:33N 58°31' E 005°40'1211.8
2014-Jul-22 13:33N 58°23' E 005°55'1212.4
2014-Jul-22 12:33N 58°15' E 006°13'1212.3
2014-Jul-22 11:33N 58°06' E 006°30'47 7.8
2014-Jul-22 05:28N 58°08' E 007°60'10 1.4
2014-Jul-21 22:25N 57°60' E 008°08'910.0
2014-Jul-21 21:33N 58°05' E 008°20'1110.9
2014-Jul-21 20:33N 58°13' E 008°35'310.8
2014-Jul-21 20:18N 58°15' E 008°39'810.9
2014-Jul-21 19:33N 58°20' E 008°51'4510.3
2014-Jul-21 15:08N 58°46' E 010°02'610.0
2014-Jul-21 14:33N 58°49' E 010°11'1010.5
2014-Jul-21 13:33N 58°55' E 010°28'1010.2
2014-Jul-21 12:33N 59°01' E 010°44'8 8.3
2014-Jul-21 11:33N 59°05' E 010°58'6 6.3
2014-Jul-21 10:33N 59°11' E 010°57'0 0.0
2014-Jul-21 09:33N 59°11' E 010°57'0 0.0
2014-Jul-21 08:33N 59°11' E 010°57'0 0.3
2014-Jul-21 07:33N 59°11' E 010°57'1111.1
2014-Jul-21 06:33N 59°00' E 010°59'1111.1
2014-Jul-21 05:33N 58°49' E 011°06'1311.3
2014-Jul-21 04:26N 58°38' E 010°58'1111.6
2014-Jul-21 03:27N 58°26' E 010°56'1111.7
2014-Jul-21 02:33N 58°16' E 010°54'1111.5
2014-Jul-21 01:33N 58°04' E 010°52'1212.2
2014-Jul-21 00:33N 57°52' E 010°49'1211.9
2014-Jul-20 23:33N 57°40' E 010°46'1111.2
2014-Jul-20 22:33N 57°29' E 010°45'1211.7
2014-Jul-20 21:33N 57°17' E 010°44'1111.2
2014-Jul-20 20:33N 57°06' E 010°44'2210.4
2014-Jul-20 18:24N 56°45' E 010°58'910.9
2014-Jul-20 17:33N 56°36' E 011°00'1111.3
2014-Jul-20 16:33N 56°25' E 010°60'69 6.7
2014-Jul-20 06:20N 55°31' E 009°44'4 5.7
2014-Jul-20 05:33N 55°26' E 009°43'1010.4
2014-Jul-20 04:33N 55°17' E 009°51'10 9.8
2014-Jul-20 03:33N 55°07' E 009°55'1212.0
2014-Jul-20 02:32N 54°58' E 010°09'1212.2
2014-Jul-20 01:33N 54°49' E 010°22'1211.7
2014-Jul-20 00:33N 54°43' E 010°40'1211.9
2014-Jul-19 23:33N 54°37' E 010°58'1212.2
2014-Jul-19 22:33N 54°34' E 011°18'1212.1
2014-Jul-19 21:34N 54°29' E 011°37'1211.9
2014-Jul-19 20:33N 54°26' E 011°57'1010.3
2014-Jul-19 19:33N 54°32' E 012°12'1111.4
2014-Jul-19 18:33N 54°40' E 012°25'1211.7
2014-Jul-19 17:33N 54°47' E 012°42'1211.7
2014-Jul-19 16:33N 54°46' E 013°03'1211.8
2014-Jul-19 15:33N 54°46' E 013°23'1010.5
2014-Jul-19 14:33N 54°41' E 013°39'1111.5
2014-Jul-19 13:33N 54°31' E 013°49'1111.2
2014-Jul-19 12:33N 54°21' E 013°58'1111.2
2014-Jul-19 11:33N 54°11' E 014°06'1111.1
2014-Jul-19 10:33N 54°01' E 014°16'8 7.7
2014-Jul-19 09:33N 53°54' E 014°16'0 0.1
2014-Jul-19 08:31N 53°54' E 014°16'0 0.0
2014-Jul-19 07:31N 53°54' E 014°16'0 0.0
2014-Jul-19 06:31N 53°54' E 014°16'0 0.0
2014-Jul-19 05:31N 53°54' E 014°16'3 3.3
2014-Jul-19 04:33N 53°57' E 014°16'6 5.9
2014-Jul-19 03:33N 54°02' E 014°19'1111.2
2014-Jul-19 02:33N 54°11' E 014°31'1111.2
2014-Jul-19 01:33N 54°20' E 014°44'1010.5
2014-Jul-19 00:33N 54°24' E 015°00'6 5.8
2014-Jul-18 23:33N 54°29' E 015°05'9 8.8
2014-Jul-18 22:33N 54°37' E 014°58'1010.2
2014-Jul-18 21:33N 54°46' E 015°05'1010.1
2014-Jul-18 20:33N 54°55' E 015°14'1010.2
2014-Jul-18 19:33N 55°03' E 015°24'1110.5
2014-Jul-18 18:33N 55°12' E 015°35'1010.4
2014-Jul-18 17:33N 55°20' E 015°45'1111.4
2014-Jul-18 16:33N 55°29' E 015°57'1111.1
2014-Jul-18 15:33N 55°39' E 016°07'10 9.9
2014-Jul-18 14:33N 55°47' E 016°17'1010.0
2014-Jul-18 13:33N 55°56' E 016°26'10 9.9
2014-Jul-18 12:33N 56°04' E 016°36'4010.0
2014-Jul-18 08:33N 56°41' E 017°01'1010.4
2014-Jul-18 07:33N 56°51' E 017°09'1010.5
2014-Jul-18 06:33N 57°00' E 017°18'1010.4
2014-Jul-18 05:33N 57°09' E 017°26'1110.6
2014-Jul-18 04:33N 57°19' E 017°35'1111.1
2014-Jul-18 03:33N 57°29' E 017°43'1111.4
2014-Jul-18 02:33N 57°38' E 017°55'  

Dump ship's entire track history